createdAt,value
2022-10-01T00:08:32.894Z,11.9
2022-10-01T00:23:42.132Z,11.9
2022-10-01T00:38:51.715Z,11.9
2022-10-01T00:54:01.358Z,11.9
2022-10-01T01:09:10.847Z,11.9
2022-10-01T01:24:20.355Z,12
2022-10-01T01:39:29.852Z,12
2022-10-01T01:54:39.242Z,12.1
2022-10-01T02:12:25.023Z,12.8
2022-10-01T02:27:35.873Z,12.2
2022-10-01T02:42:44.610Z,12.1
2022-10-01T02:57:54.135Z,12
2022-10-01T03:13:03.274Z,11.9
2022-10-01T03:28:12.885Z,11.9
2022-10-01T03:43:22.846Z,12
2022-10-01T03:58:32.246Z,12.1
2022-10-01T04:13:41.861Z,12.1
2022-10-01T04:28:51.161Z,12
2022-10-01T04:44:03.370Z,11.8
2022-10-01T04:59:12.483Z,11.5
2022-10-01T05:14:21.790Z,11.4
2022-10-01T05:29:31.542Z,11.3
2022-10-01T05:44:40.990Z,11.1
2022-10-01T05:59:50.098Z,11
2022-10-01T06:14:59.619Z,10.8
2022-10-01T06:30:09.115Z,10.7
2022-10-01T06:45:18.490Z,10.6
2022-10-01T07:00:27.843Z,10.7
2022-10-01T07:15:37.435Z,10.7
2022-10-01T07:30:46.872Z,10.8
2022-10-01T07:45:56.475Z,10.8
2022-10-01T08:01:06.929Z,10.9
2022-10-01T08:16:16.838Z,11.1
2022-10-01T08:31:26.624Z,11.3
2022-10-01T08:46:36.310Z,11.2
2022-10-01T09:01:45.848Z,11.1
2022-10-01T09:16:55.874Z,11.2
2022-10-01T09:32:06.091Z,11.5
2022-10-01T09:47:16.668Z,12
2022-10-01T10:02:26.888Z,12.4
2022-10-01T10:17:37.525Z,12.7
2022-10-01T10:32:47.313Z,13
2022-10-01T10:47:57.034Z,13.3
2022-10-01T11:03:07.103Z,13.6
2022-10-01T11:18:16.647Z,13.6
2022-10-01T11:33:26.599Z,13.9
2022-10-01T11:48:36.251Z,14.2
2022-10-01T12:03:48.276Z,16.1
2022-10-01T12:18:59.119Z,17.3
2022-10-01T12:34:07.702Z,16.9
2022-10-01T12:49:17.453Z,16.8
2022-10-01T13:04:27.326Z,16.9
2022-10-01T13:19:36.795Z,16.5
2022-10-01T13:34:46.298Z,16.5
2022-10-01T13:49:55.833Z,16.3
2022-10-01T14:05:04.731Z,14.3
2022-10-01T14:20:12.293Z,12.2
2022-10-01T14:35:20.420Z,11.4
2022-10-01T14:50:29.571Z,11.3
2022-10-01T15:05:39.504Z,11.7
2022-10-01T15:20:49.594Z,12.1
2022-10-01T15:35:58.928Z,12.4
2022-10-01T15:51:08.233Z,12.6
2022-10-01T16:06:18.064Z,12.8
2022-10-01T16:21:27.803Z,12.8
2022-10-01T16:36:37.189Z,12.8
2022-10-01T16:51:46.681Z,12.8
2022-10-01T17:06:56.622Z,12.9
2022-10-01T17:22:05.869Z,12.9
2022-10-01T17:37:15.921Z,12.8
2022-10-01T17:52:25.800Z,12.8
2022-10-01T18:07:34.938Z,12.7
2022-10-01T18:22:44.096Z,12.7
2022-10-01T18:37:53.447Z,12.4
2022-10-01T18:53:04.754Z,12.2
2022-10-01T19:08:14.387Z,12.1
2022-10-01T19:23:23.902Z,11.9
2022-10-01T19:38:33.466Z,11.9
2022-10-01T19:53:43.016Z,11.9
2022-10-01T20:08:52.508Z,11.9
2022-10-01T20:24:02.219Z,11.9
2022-10-01T20:39:12.019Z,11.9
2022-10-01T20:54:21.434Z,11.9
2022-10-01T21:09:30.867Z,11.8
2022-10-01T21:24:40.284Z,11.7
2022-10-01T21:39:49.360Z,11.7
2022-10-01T21:54:59.714Z,11.7
2022-10-01T22:10:09.433Z,11.7
2022-10-01T22:25:19.280Z,11.8
2022-10-01T22:40:28.533Z,11.8
2022-10-01T22:55:38.378Z,11.8
2022-10-01T23:10:47.925Z,11.8
2022-10-01T23:25:57.288Z,11.9
2022-10-01T23:41:07.076Z,11.9
2022-10-01T23:56:16.836Z,11.9
